Terminal Aerodrome Forecast
Issued by NWS Spokane, WA

Home | Current Version | Previous Version | Text Only | Print | Product List | Glossary On
Versions: 1 2 3 4 5 6 7 8 9 10 11 12 13 14 15 16 17 18 19 20 21 22 23 24 25 26 27 28 29 30 31 32 33 34 35 36 37
000
FTUS46 KOTX 281139
TAFGEG
TAF
KGEG 281139Z 2812/2912 21016KT P6SM SCT020 SCT090
     FM281500 21018G28KT P6SM -SHRA SCT015 OVC050
     FM282000 23025G35KT P6SM -SHRA BKN040 OVC080
     FM290100 20019G30KT P6SM -RA BKN015 OVC050=

USA.gov is the U.S. government's official web portal to all federal, state and local government web resources and services.